sensor_id;sensor_type;location;lat;lon;timestamp;P1;durP1;ratioP1;P2;durP2;ratioP2
73575;SDS011;61859;49.204;8.140;2022-09-03T00:00:48;3.43;;;1.33;;
73575;SDS011;61859;49.204;8.140;2022-09-03T00:03:32;2.03;;;1.07;;
73575;SDS011;61859;49.204;8.140;2022-09-03T00:08:45;4.07;;;1.00;;
73575;SDS011;61859;49.204;8.140;2022-09-03T00:11:21;2.57;;;1.17;;
73575;SDS011;61859;49.204;8.140;2022-09-03T00:14:05;3.77;;;1.20;;
73575;SDS011;61859;49.204;8.140;2022-09-03T00:16:45;2.43;;;1.10;;
73575;SDS011;61859;49.204;8.140;2022-09-03T00:19:12;2.37;;;1.30;;
73575;SDS011;61859;49.204;8.140;2022-09-03T00:24:10;1.47;;;1.07;;
73575;SDS011;61859;49.204;8.140;2022-09-03T00:26:39;4.03;;;1.20;;
73575;SDS011;61859;49.204;8.140;2022-09-03T00:29:13;1.07;;;1.00;;
73575;SDS011;61859;49.204;8.140;2022-09-03T00:31:49;1.27;;;1.13;;
73575;SDS011;61859;49.204;8.140;2022-09-03T00:34:40;2.03;;;0.90;;
73575;SDS011;61859;49.204;8.140;2022-09-03T00:37:07;1.27;;;1.00;;
73575;SDS011;61859;49.204;8.140;2022-09-03T00:39:34;1.30;;;1.20;;
73575;SDS011;61859;49.204;8.140;2022-09-03T00:42:17;1.87;;;1.40;;
73575;SDS011;61859;49.204;8.140;2022-09-03T00:47:37;2.10;;;1.00;;
73575;SDS011;61859;49.204;8.140;2022-09-03T00:52:57;1.20;;;1.10;;
73575;SDS011;61859;49.204;8.140;2022-09-03T01:00:28;1.43;;;1.20;;
73575;SDS011;61859;49.204;8.140;2022-09-03T01:03:03;1.43;;;1.33;;
73575;SDS011;61859;49.204;8.140;2022-09-03T01:25:37;1.80;;;1.30;;
73575;SDS011;61859;49.204;8.140;2022-09-03T01:28:19;1.80;;;1.40;;
73575;SDS011;61859;49.204;8.140;2022-09-03T01:31:06;3.67;;;1.20;;
73575;SDS011;61859;49.204;8.140;2022-09-03T01:36:35;2.47;;;1.30;;
73575;SDS011;61859;49.204;8.140;2022-09-03T01:39:10;2.30;;;1.30;;
73575;SDS011;61859;49.204;8.140;2022-09-03T01:41:55;1.40;;;0.90;;
73575;SDS011;61859;49.204;8.140;2022-09-03T01:47:44;1.90;;;1.30;;
73575;SDS011;61859;49.204;8.140;2022-09-03T01:55:43;3.40;;;1.30;;
73575;SDS011;61859;49.204;8.140;2022-09-03T01:58:22;2.90;;;1.27;;
73575;SDS011;61859;49.204;8.140;2022-09-03T02:00:56;1.67;;;1.10;;
73575;SDS011;61859;49.204;8.140;2022-09-03T02:03:35;1.33;;;1.23;;
73575;SDS011;61859;49.204;8.140;2022-09-03T02:06:06;2.73;;;1.30;;
73575;SDS011;61859;49.204;8.140;2022-09-03T02:08:34;5.23;;;1.20;;
73575;SDS011;61859;49.204;8.140;2022-09-03T02:10:59;2.33;;;1.20;;
73575;SDS011;61859;49.204;8.140;2022-09-03T02:13:42;1.50;;;1.40;;
73575;SDS011;61859;49.204;8.140;2022-09-03T02:16:13;1.77;;;1.67;;
73575;SDS011;61859;49.204;8.140;2022-09-03T02:18:42;1.47;;;1.37;;
73575;SDS011;61859;49.204;8.140;2022-09-03T02:21:11;2.77;;;1.50;;
73575;SDS011;61859;49.204;8.140;2022-09-03T02:23:40;2.23;;;1.80;;
73575;SDS011;61859;49.204;8.140;2022-09-03T02:26:06;3.07;;;1.37;;
73575;SDS011;61859;49.204;8.140;2022-09-03T02:28:33;1.70;;;1.50;;
73575;SDS011;61859;49.204;8.140;2022-09-03T02:30:59;3.97;;;1.50;;
73575;SDS011;61859;49.204;8.140;2022-09-03T02:33:25;1.33;;;1.10;;
73575;SDS011;61859;49.204;8.140;2022-09-03T02:35:50;1.80;;;1.53;;
73575;SDS011;61859;49.204;8.140;2022-09-03T02:38:21;4.07;;;1.30;;
73575;SDS011;61859;49.204;8.140;2022-09-03T02:40:49;3.13;;;1.20;;
73575;SDS011;61859;49.204;8.140;2022-09-03T02:46:07;1.30;;;1.20;;
73575;SDS011;61859;49.204;8.140;2022-09-03T02:48:36;1.13;;;1.10;;
73575;SDS011;61859;49.204;8.140;2022-09-03T02:51:02;1.57;;;1.03;;
73575;SDS011;61859;49.204;8.140;2022-09-03T02:53:27;1.23;;;1.00;;
73575;SDS011;61859;49.204;8.140;2022-09-03T02:55:57;1.40;;;1.30;;
73575;SDS011;61859;49.204;8.140;2022-09-03T02:58:24;1.60;;;1.30;;
73575;SDS011;61859;49.204;8.140;2022-09-03T03:00:50;1.83;;;1.23;;
73575;SDS011;61859;49.204;8.140;2022-09-03T03:03:16;2.20;;;1.23;;
73575;SDS011;61859;49.204;8.140;2022-09-03T03:08:07;1.20;;;1.10;;
73575;SDS011;61859;49.204;8.140;2022-09-03T03:10:33;2.90;;;1.30;;
73575;SDS011;61859;49.204;8.140;2022-09-03T03:12:59;1.53;;;1.13;;
73575;SDS011;61859;49.204;8.140;2022-09-03T03:15:25;3.37;;;1.27;;
73575;SDS011;61859;49.204;8.140;2022-09-03T03:17:51;2.60;;;1.33;;
73575;SDS011;61859;49.204;8.140;2022-09-03T03:20:20;2.93;;;1.40;;
73575;SDS011;61859;49.204;8.140;2022-09-03T03:22:45;2.40;;;1.63;;
73575;SDS011;61859;49.204;8.140;2022-09-03T03:25:11;3.90;;;1.67;;
73575;SDS011;61859;49.204;8.140;2022-09-03T03:27:36;3.33;;;1.53;;
73575;SDS011;61859;49.204;8.140;2022-09-03T03:30:05;2.37;;;1.50;;
73575;SDS011;61859;49.204;8.140;2022-09-03T03:32:34;3.73;;;1.37;;
73575;SDS011;61859;49.204;8.140;2022-09-03T03:35:00;2.20;;;1.33;;
73575;SDS011;61859;49.204;8.140;2022-09-03T03:37:25;2.63;;;1.50;;
73575;SDS011;61859;49.204;8.140;2022-09-03T03:39:51;4.23;;;1.40;;
73575;SDS011;61859;49.204;8.140;2022-09-03T03:42:16;1.53;;;1.20;;
73575;SDS011;61859;49.204;8.140;2022-09-03T03:44:42;4.20;;;1.60;;
73575;SDS011;61859;49.204;8.140;2022-09-03T03:47:08;2.63;;;1.20;;
73575;SDS011;61859;49.204;8.140;2022-09-03T03:49:33;1.70;;;1.23;;
73575;SDS011;61859;49.204;8.140;2022-09-03T03:51:59;2.73;;;1.30;;
73575;SDS011;61859;49.204;8.140;2022-09-03T03:54:27;2.40;;;1.53;;
73575;SDS011;61859;49.204;8.140;2022-09-03T03:56:52;1.17;;;1.10;;
73575;SDS011;61859;49.204;8.140;2022-09-03T03:59:18;2.23;;;1.40;;
73575;SDS011;61859;49.204;8.140;2022-09-03T04:01:43;2.27;;;1.43;;
73575;SDS011;61859;49.204;8.140;2022-09-03T04:04:09;4.60;;;1.60;;
73575;SDS011;61859;49.204;8.140;2022-09-03T04:06:34;1.73;;;1.33;;
73575;SDS011;61859;49.204;8.140;2022-09-03T04:09:00;2.23;;;1.30;;
73575;SDS011;61859;49.204;8.140;2022-09-03T04:11:25;1.93;;;1.30;;
73575;SDS011;61859;49.204;8.140;2022-09-03T04:13:51;5.83;;;1.30;;
73575;SDS011;61859;49.204;8.140;2022-09-03T04:16:21;3.13;;;1.20;;
73575;SDS011;61859;49.204;8.140;2022-09-03T04:18:48;2.70;;;1.10;;
73575;SDS011;61859;49.204;8.140;2022-09-03T04:21:16;1.20;;;1.00;;
73575;SDS011;61859;49.204;8.140;2022-09-03T04:23:44;4.57;;;1.40;;
73575;SDS011;61859;49.204;8.140;2022-09-03T04:26:11;1.30;;;1.20;;
73575;SDS011;61859;49.204;8.140;2022-09-03T04:28:39;2.47;;;1.57;;
73575;SDS011;61859;49.204;8.140;2022-09-03T04:31:07;1.73;;;1.20;;
73575;SDS011;61859;49.204;8.140;2022-09-03T04:33:34;1.97;;;1.40;;
73575;SDS011;61859;49.204;8.140;2022-09-03T04:38:29;2.20;;;1.20;;
73575;SDS011;61859;49.204;8.140;2022-09-03T04:40:56;3.03;;;1.90;;
73575;SDS011;61859;49.204;8.140;2022-09-03T04:43:23;2.93;;;1.40;;
73575;SDS011;61859;49.204;8.140;2022-09-03T04:45:49;2.30;;;1.40;;
73575;SDS011;61859;49.204;8.140;2022-09-03T04:48:14;2.10;;;1.47;;
73575;SDS011;61859;49.204;8.140;2022-09-03T04:50:40;3.50;;;1.53;;
73575;SDS011;61859;49.204;8.140;2022-09-03T04:53:05;2.30;;;1.47;;
73575;SDS011;61859;49.204;8.140;2022-09-03T04:55:32;2.87;;;1.47;;
73575;SDS011;61859;49.204;8.140;2022-09-03T04:58:01;3.37;;;1.40;;
73575;SDS011;61859;49.204;8.140;2022-09-03T05:00:28;2.10;;;1.30;;
73575;SDS011;61859;49.204;8.140;2022-09-03T05:02:53;2.00;;;1.53;;
73575;SDS011;61859;49.204;8.140;2022-09-03T05:05:19;1.20;;;1.10;;
73575;SDS011;61859;49.204;8.140;2022-09-03T05:07:45;2.10;;;1.63;;
73575;SDS011;61859;49.204;8.140;2022-09-03T05:10:11;2.53;;;1.70;;
73575;SDS011;61859;49.204;8.140;2022-09-03T05:12:44;2.73;;;1.90;;
73575;SDS011;61859;49.204;8.140;2022-09-03T05:15:21;1.87;;;1.63;;
73575;SDS011;61859;49.204;8.140;2022-09-03T05:17:46;2.97;;;1.90;;
73575;SDS011;61859;49.204;8.140;2022-09-03T05:20:12;2.40;;;1.37;;
73575;SDS011;61859;49.204;8.140;2022-09-03T05:22:38;4.13;;;1.50;;
73575;SDS011;61859;49.204;8.140;2022-09-03T05:25:04;1.83;;;1.50;;
73575;SDS011;61859;49.204;8.140;2022-09-03T05:27:30;2.70;;;1.50;;
73575;SDS011;61859;49.204;8.140;2022-09-03T05:29:56;2.30;;;1.80;;
73575;SDS011;61859;49.204;8.140;2022-09-03T05:32:21;2.80;;;1.33;;
73575;SDS011;61859;49.204;8.140;2022-09-03T05:34:47;2.10;;;1.40;;
73575;SDS011;61859;49.204;8.140;2022-09-03T05:37:12;6.33;;;2.47;;
73575;SDS011;61859;49.204;8.140;2022-09-03T05:39:38;4.43;;;1.93;;
73575;SDS011;61859;49.204;8.140;2022-09-03T05:42:03;8.73;;;2.10;;
73575;SDS011;61859;49.204;8.140;2022-09-03T05:44:29;2.33;;;1.80;;
73575;SDS011;61859;49.204;8.140;2022-09-03T05:46:55;2.57;;;2.00;;
73575;SDS011;61859;49.204;8.140;2022-09-03T05:49:21;3.80;;;2.03;;
73575;SDS011;61859;49.204;8.140;2022-09-03T05:51:46;6.43;;;2.10;;
73575;SDS011;61859;49.204;8.140;2022-09-03T05:54:12;1.83;;;1.70;;
73575;SDS011;61859;49.204;8.140;2022-09-03T05:56:38;3.70;;;2.03;;
73575;SDS011;61859;49.204;8.140;2022-09-03T05:59:05;4.03;;;2.10;;
73575;SDS011;61859;49.204;8.140;2022-09-03T06:01:43;3.33;;;2.30;;
73575;SDS011;61859;49.204;8.140;2022-09-03T06:04:11;2.57;;;2.00;;
73575;SDS011;61859;49.204;8.140;2022-09-03T06:06:42;2.87;;;2.30;;
73575;SDS011;61859;49.204;8.140;2022-09-03T06:09:13;5.63;;;2.63;;
73575;SDS011;61859;49.204;8.140;2022-09-03T06:11:41;5.30;;;2.37;;
73575;SDS011;61859;49.204;8.140;2022-09-03T06:14:07;4.93;;;3.00;;
73575;SDS011;61859;49.204;8.140;2022-09-03T06:16:36;5.60;;;2.67;;
73575;SDS011;61859;49.204;8.140;2022-09-03T06:19:07;4.60;;;2.83;;
73575;SDS011;61859;49.204;8.140;2022-09-03T06:21:37;9.27;;;3.00;;
73575;SDS011;61859;49.204;8.140;2022-09-03T06:24:07;7.33;;;2.83;;
73575;SDS011;61859;49.204;8.140;2022-09-03T06:26:37;6.07;;;3.43;;
73575;SDS011;61859;49.204;8.140;2022-09-03T06:29:03;4.87;;;2.70;;
73575;SDS011;61859;49.204;8.140;2022-09-03T06:31:29;5.13;;;2.87;;
73575;SDS011;61859;49.204;8.140;2022-09-03T06:33:54;7.57;;;3.00;;
73575;SDS011;61859;49.204;8.140;2022-09-03T06:36:21;5.57;;;3.53;;
73575;SDS011;61859;49.204;8.140;2022-09-03T06:38:50;4.77;;;2.70;;
73575;SDS011;61859;49.204;8.140;2022-09-03T06:41:18;5.60;;;3.20;;
73575;SDS011;61859;49.204;8.140;2022-09-03T06:43:48;5.50;;;3.60;;
73575;SDS011;61859;49.204;8.140;2022-09-03T06:46:16;7.60;;;3.80;;
73575;SDS011;61859;49.204;8.140;2022-09-03T06:48:43;6.03;;;3.27;;
73575;SDS011;61859;49.204;8.140;2022-09-03T06:51:11;4.77;;;2.73;;
73575;SDS011;61859;49.204;8.140;2022-09-03T06:53:39;7.70;;;3.20;;
73575;SDS011;61859;49.204;8.140;2022-09-03T06:56:06;6.97;;;3.63;;
73575;SDS011;61859;49.204;8.140;2022-09-03T06:58:34;5.17;;;3.30;;
73575;SDS011;61859;49.204;8.140;2022-09-03T07:01:08;3.50;;;3.17;;
73575;SDS011;61859;49.204;8.140;2022-09-03T07:03:39;5.30;;;3.40;;
73575;SDS011;61859;49.204;8.140;2022-09-03T07:06:07;3.33;;;3.03;;
73575;SDS011;61859;49.204;8.140;2022-09-03T07:08:35;4.20;;;3.20;;
73575;SDS011;61859;49.204;8.140;2022-09-03T07:11:02;4.27;;;3.00;;
73575;SDS011;61859;49.204;8.140;2022-09-03T07:13:33;5.53;;;3.30;;
73575;SDS011;61859;49.204;8.140;2022-09-03T07:16:00;4.77;;;3.70;;
73575;SDS011;61859;49.204;8.140;2022-09-03T07:18:27;4.60;;;3.00;;
73575;SDS011;61859;49.204;8.140;2022-09-03T07:20:57;7.50;;;3.30;;
73575;SDS011;61859;49.204;8.140;2022-09-03T07:23:24;4.07;;;3.10;;
73575;SDS011;61859;49.204;8.140;2022-09-03T07:25:57;3.13;;;2.80;;
73575;SDS011;61859;49.204;8.140;2022-09-03T07:28:24;6.07;;;3.50;;
73575;SDS011;61859;49.204;8.140;2022-09-03T07:30:50;4.87;;;3.13;;
73575;SDS011;61859;49.204;8.140;2022-09-03T07:33:17;4.00;;;2.70;;
73575;SDS011;61859;49.204;8.140;2022-09-03T07:35:43;5.03;;;3.17;;
73575;SDS011;61859;49.204;8.140;2022-09-03T07:38:09;5.77;;;3.60;;
73575;SDS011;61859;49.204;8.140;2022-09-03T07:40:35;4.17;;;3.40;;
73575;SDS011;61859;49.204;8.140;2022-09-03T07:43:03;5.20;;;3.13;;
73575;SDS011;61859;49.204;8.140;2022-09-03T07:45:29;6.00;;;3.60;;
73575;SDS011;61859;49.204;8.140;2022-09-03T07:47:57;6.40;;;3.40;;
73575;SDS011;61859;49.204;8.140;2022-09-03T07:50:24;3.53;;;3.23;;
73575;SDS011;61859;49.204;8.140;2022-09-03T07:52:54;5.87;;;4.00;;
73575;SDS011;61859;49.204;8.140;2022-09-03T07:55:21;4.20;;;3.80;;
73575;SDS011;61859;49.204;8.140;2022-09-03T07:57:47;3.87;;;3.50;;
73575;SDS011;61859;49.204;8.140;2022-09-03T08:00:13;3.90;;;3.50;;
73575;SDS011;61859;49.204;8.140;2022-09-03T08:02:39;3.90;;;3.60;;
73575;SDS011;61859;49.204;8.140;2022-09-03T08:05:04;4.00;;;3.60;;
73575;SDS011;61859;49.204;8.140;2022-09-03T08:07:31;4.27;;;3.63;;
73575;SDS011;61859;49.204;8.140;2022-09-03T08:09:56;4.30;;;3.90;;
73575;SDS011;61859;49.204;8.140;2022-09-03T08:12:22;5.87;;;3.73;;
73575;SDS011;61859;49.204;8.140;2022-09-03T08:14:48;6.93;;;3.80;;
73575;SDS011;61859;49.204;8.140;2022-09-03T08:17:13;5.90;;;4.27;;
73575;SDS011;61859;49.204;8.140;2022-09-03T08:19:39;8.23;;;4.47;;
73575;SDS011;61859;49.204;8.140;2022-09-03T08:22:06;4.00;;;3.60;;
73575;SDS011;61859;49.204;8.140;2022-09-03T08:24:31;4.30;;;3.37;;
73575;SDS011;61859;49.204;8.140;2022-09-03T08:26:58;3.70;;;3.40;;
73575;SDS011;61859;49.204;8.140;2022-09-03T08:29:24;6.73;;;3.57;;
73575;SDS011;61859;49.204;8.140;2022-09-03T08:31:51;4.40;;;3.83;;
73575;SDS011;61859;49.204;8.140;2022-09-03T08:34:16;4.67;;;4.17;;
73575;SDS011;61859;49.204;8.140;2022-09-03T08:36:42;6.33;;;4.13;;
73575;SDS011;61859;49.204;8.140;2022-09-03T08:39:08;4.23;;;3.73;;
73575;SDS011;61859;49.204;8.140;2022-09-03T08:41:40;5.10;;;3.80;;
73575;SDS011;61859;49.204;8.140;2022-09-03T08:44:29;5.87;;;3.93;;
73575;SDS011;61859;49.204;8.140;2022-09-03T08:47:27;5.83;;;3.27;;
73575;SDS011;61859;49.204;8.140;2022-09-03T08:50:32;4.80;;;2.93;;
73575;SDS011;61859;49.204;8.140;2022-09-03T08:58:17;5.00;;;3.17;;
73575;SDS011;61859;49.204;8.140;2022-09-03T09:00:46;4.83;;;3.23;;
73575;SDS011;61859;49.204;8.140;2022-09-03T09:06:17;3.83;;;3.47;;
73575;SDS011;61859;49.204;8.140;2022-09-03T09:14:25;3.93;;;3.37;;
73575;SDS011;61859;49.204;8.140;2022-09-03T09:17:09;4.37;;;3.70;;
73575;SDS011;61859;49.204;8.140;2022-09-03T09:20:25;4.67;;;3.80;;
73575;SDS011;61859;49.204;8.140;2022-09-03T09:22:33;5.47;;;3.60;;
73575;SDS011;61859;49.204;8.140;2022-09-03T09:25:04;4.37;;;3.87;;
73575;SDS011;61859;49.204;8.140;2022-09-03T09:27:36;6.23;;;3.90;;
73575;SDS011;61859;49.204;8.140;2022-09-03T09:30:04;4.67;;;3.67;;
73575;SDS011;61859;49.204;8.140;2022-09-03T09:32:30;4.60;;;4.20;;
73575;SDS011;61859;49.204;8.140;2022-09-03T09:34:57;5.07;;;4.33;;
73575;SDS011;61859;49.204;8.140;2022-09-03T09:37:23;4.27;;;3.87;;
73575;SDS011;61859;49.204;8.140;2022-09-03T09:39:53;4.63;;;4.20;;
73575;SDS011;61859;49.204;8.140;2022-09-03T09:42:23;4.50;;;4.10;;
73575;SDS011;61859;49.204;8.140;2022-09-03T09:44:49;4.70;;;4.20;;
73575;SDS011;61859;49.204;8.140;2022-09-03T09:47:23;4.80;;;4.33;;
73575;SDS011;61859;49.204;8.140;2022-09-03T09:49:53;5.10;;;4.60;;
73575;SDS011;61859;49.204;8.140;2022-09-03T09:52:20;5.27;;;4.87;;
73575;SDS011;61859;49.204;8.140;2022-09-03T09:54:50;4.60;;;4.20;;
73575;SDS011;61859;49.204;8.140;2022-09-03T09:57:20;5.57;;;4.80;;
73575;SDS011;61859;49.204;8.140;2022-09-03T09:59:49;5.97;;;5.00;;
73575;SDS011;61859;49.204;8.140;2022-09-03T10:02:33;5.37;;;4.87;;
73575;SDS011;61859;49.204;8.140;2022-09-03T10:05:13;6.13;;;5.53;;
73575;SDS011;61859;49.204;8.140;2022-09-03T10:07:52;6.27;;;4.90;;
73575;SDS011;61859;49.204;8.140;2022-09-03T10:10:26;4.73;;;4.33;;
73575;SDS011;61859;49.204;8.140;2022-09-03T10:13:00;4.70;;;4.30;;
73575;SDS011;61859;49.204;8.140;2022-09-03T10:21:00;4.43;;;4.07;;
73575;SDS011;61859;49.204;8.140;2022-09-03T10:23:29;4.27;;;3.93;;
73575;SDS011;61859;49.204;8.140;2022-09-03T10:26:18;4.47;;;4.07;;
73575;SDS011;61859;49.204;8.140;2022-09-03T10:28:55;5.03;;;4.53;;
73575;SDS011;61859;49.204;8.140;2022-09-03T10:44:49;3.77;;;3.20;;
73575;SDS011;61859;49.204;8.140;2022-09-03T10:47:42;4.10;;;2.70;;
73575;SDS011;61859;49.204;8.140;2022-09-03T10:50:20;3.03;;;2.80;;
73575;SDS011;61859;49.204;8.140;2022-09-03T10:52:56;2.43;;;2.00;;
73575;SDS011;61859;49.204;8.140;2022-09-03T11:01:00;2.90;;;2.70;;
73575;SDS011;61859;49.204;8.140;2022-09-03T11:03:48;2.50;;;2.30;;
73575;SDS011;61859;49.204;8.140;2022-09-03T11:07:20;3.33;;;2.77;;
73575;SDS011;61859;49.204;8.140;2022-09-03T11:09:30;3.40;;;3.10;;
73575;SDS011;61859;49.204;8.140;2022-09-03T11:12:04;4.33;;;3.20;;
73575;SDS011;61859;49.204;8.140;2022-09-03T11:14:43;3.60;;;3.40;;
73575;SDS011;61859;49.204;8.140;2022-09-03T11:17:13;3.73;;;3.40;;
73575;SDS011;61859;49.204;8.140;2022-09-03T11:19:45;4.00;;;3.70;;
73575;SDS011;61859;49.204;8.140;2022-09-03T11:22:17;3.73;;;3.43;;
73575;SDS011;61859;49.204;8.140;2022-09-03T11:24:45;4.07;;;3.77;;
73575;SDS011;61859;49.204;8.140;2022-09-03T11:30:02;3.80;;;3.40;;
73575;SDS011;61859;49.204;8.140;2022-09-03T11:32:51;3.90;;;3.60;;
73575;SDS011;61859;49.204;8.140;2022-09-03T11:35:27;4.17;;;3.77;;
73575;SDS011;61859;49.204;8.140;2022-09-03T11:38:00;3.63;;;3.37;;
73575;SDS011;61859;49.204;8.140;2022-09-03T11:40:36;2.17;;;2.07;;
73575;SDS011;61859;49.204;8.140;2022-09-03T11:43:23;2.57;;;2.37;;
73575;SDS011;61859;49.204;8.140;2022-09-03T11:46:10;2.10;;;2.00;;
73575;SDS011;61859;49.204;8.140;2022-09-03T11:53:53;3.40;;;3.10;;
73575;SDS011;61859;49.204;8.140;2022-09-03T11:56:20;3.73;;;3.40;;
73575;SDS011;61859;49.204;8.140;2022-09-03T11:58:57;3.80;;;3.10;;
73575;SDS011;61859;49.204;8.140;2022-09-03T12:01:28;4.83;;;3.43;;
73575;SDS011;61859;49.204;8.140;2022-09-03T12:03:57;3.63;;;2.83;;
73575;SDS011;61859;49.204;8.140;2022-09-03T12:06:48;4.00;;;3.03;;
73575;SDS011;61859;49.204;8.140;2022-09-03T12:09:32;3.30;;;3.00;;
73575;SDS011;61859;49.204;8.140;2022-09-03T12:20:14;3.43;;;3.13;;
73575;SDS011;61859;49.204;8.140;2022-09-03T12:22:40;3.43;;;3.13;;
73575;SDS011;61859;49.204;8.140;2022-09-03T12:25:09;5.07;;;3.50;;
73575;SDS011;61859;49.204;8.140;2022-09-03T12:27:37;3.87;;;3.57;;
73575;SDS011;61859;49.204;8.140;2022-09-03T12:30:13;3.73;;;3.43;;
73575;SDS011;61859;49.204;8.140;2022-09-03T12:32:41;3.60;;;3.30;;
73575;SDS011;61859;49.204;8.140;2022-09-03T12:35:23;3.23;;;2.93;;
73575;SDS011;61859;49.204;8.140;2022-09-03T12:37:50;3.47;;;3.17;;
73575;SDS011;61859;49.204;8.140;2022-09-03T12:42:45;3.00;;;2.70;;
73575;SDS011;61859;49.204;8.140;2022-09-03T12:45:11;3.25;;;2.95;;
73575;SDS011;61859;49.204;8.140;2022-09-03T12:47:40;3.00;;;2.65;;
73575;SDS011;61859;49.204;8.140;2022-09-03T12:52:38;4.43;;;3.15;;
73575;SDS011;61859;49.204;8.140;2022-09-03T12:57:53;2.90;;;2.60;;
73575;SDS011;61859;49.204;8.140;2022-09-03T13:00:30;4.20;;;2.72;;
73575;SDS011;61859;49.204;8.140;2022-09-03T13:02:59;3.03;;;2.80;;
73575;SDS011;61859;49.204;8.140;2022-09-03T13:05:51;3.65;;;3.05;;
73575;SDS011;61859;49.204;8.140;2022-09-03T13:08:32;3.20;;;2.70;;
73575;SDS011;61859;49.204;8.140;2022-09-03T13:11:25;2.70;;;2.50;;
73575;SDS011;61859;49.204;8.140;2022-09-03T13:13:54;2.65;;;2.45;;
73575;SDS011;61859;49.204;8.140;2022-09-03T13:22:21;3.63;;;2.00;;
73575;SDS011;61859;49.204;8.140;2022-09-03T13:27:44;2.53;;;2.33;;
73575;SDS011;61859;49.204;8.140;2022-09-03T13:30:16;2.95;;;2.50;;
73575;SDS011;61859;49.204;8.140;2022-09-03T13:56:49;4.70;;;4.20;;
73575;SDS011;61859;49.204;8.140;2022-09-03T14:02:19;4.73;;;4.33;;
73575;SDS011;61859;49.204;8.140;2022-09-03T14:08:07;8.33;;;3.00;;
73575;SDS011;61859;49.204;8.140;2022-09-03T14:10:50;6.77;;;3.10;;
73575;SDS011;61859;49.204;8.140;2022-09-03T14:22:00;6.03;;;4.20;;
73575;SDS011;61859;49.204;8.140;2022-09-03T14:24:50;6.97;;;4.40;;
73575;SDS011;61859;49.204;8.140;2022-09-03T14:27:25;7.13;;;4.40;;
73575;SDS011;61859;49.204;8.140;2022-09-03T14:30:00;9.73;;;5.57;;
73575;SDS011;61859;49.204;8.140;2022-09-03T14:32:28;4.80;;;3.87;;
73575;SDS011;61859;49.204;8.140;2022-09-03T14:40:39;5.03;;;4.30;;
73575;SDS011;61859;49.204;8.140;2022-09-03T14:49:37;7.03;;;4.67;;
73575;SDS011;61859;49.204;8.140;2022-09-03T14:52:30;6.60;;;5.10;;
73575;SDS011;61859;49.204;8.140;2022-09-03T14:57:58;6.07;;;5.33;;
73575;SDS011;61859;49.204;8.140;2022-09-03T15:00:45;6.47;;;5.70;;
73575;SDS011;61859;49.204;8.140;2022-09-03T15:06:10;5.77;;;5.27;;
73575;SDS011;61859;49.204;8.140;2022-09-03T15:08:43;6.57;;;5.90;;
73575;SDS011;61859;49.204;8.140;2022-09-03T15:11:23;5.20;;;4.80;;
73575;SDS011;61859;49.204;8.140;2022-09-03T15:13:54;6.47;;;5.87;;
73575;SDS011;61859;49.204;8.140;2022-09-03T15:22:12;6.47;;;5.87;;
73575;SDS011;61859;49.204;8.140;2022-09-03T15:30:16;6.00;;;5.40;;
73575;SDS011;61859;49.204;8.140;2022-09-03T15:37:55;5.23;;;4.60;;
73575;SDS011;61859;49.204;8.140;2022-09-03T15:43:24;6.00;;;4.60;;
73575;SDS011;61859;49.204;8.140;2022-09-03T15:46:03;6.77;;;4.80;;
73575;SDS011;61859;49.204;8.140;2022-09-03T15:48:44;6.60;;;4.90;;
73575;SDS011;61859;49.204;8.140;2022-09-03T15:51:39;7.50;;;5.17;;
73575;SDS011;61859;49.204;8.140;2022-09-03T15:54:15;7.80;;;5.33;;
73575;SDS011;61859;49.204;8.140;2022-09-03T15:56:54;6.67;;;5.37;;
73575;SDS011;61859;49.204;8.140;2022-09-03T16:02:16;6.43;;;5.93;;
73575;SDS011;61859;49.204;8.140;2022-09-03T16:12:35;6.03;;;5.30;;
73575;SDS011;61859;49.204;8.140;2022-09-03T16:15:25;4.40;;;4.00;;
73575;SDS011;61859;49.204;8.140;2022-09-03T16:18:08;3.60;;;3.30;;
73575;SDS011;61859;49.204;8.140;2022-09-03T16:21:06;3.67;;;2.93;;
73575;SDS011;61859;49.204;8.140;2022-09-03T16:23:52;3.10;;;2.77;;
73575;SDS011;61859;49.204;8.140;2022-09-03T16:26:30;2.30;;;2.10;;
73575;SDS011;61859;49.204;8.140;2022-09-03T16:37:14;1.95;;;1.40;;
73575;SDS011;61859;49.204;8.140;2022-09-03T16:40:02;1.40;;;1.30;;
73575;SDS011;61859;49.204;8.140;2022-09-03T16:47:50;1.95;;;1.10;;
73575;SDS011;61859;49.204;8.140;2022-09-03T17:05:23;1.05;;;0.93;;
73575;SDS011;61859;49.204;8.140;2022-09-03T17:10:48;2.67;;;1.05;;
73575;SDS011;61859;49.204;8.140;2022-09-03T17:18:57;1.10;;;1.00;;
73575;SDS011;61859;49.204;8.140;2022-09-03T17:21:42;1.00;;;1.00;;
73575;SDS011;61859;49.204;8.140;2022-09-03T17:24:19;1.20;;;1.10;;
73575;SDS011;61859;49.204;8.140;2022-09-03T17:35:30;1.50;;;1.30;;
73575;SDS011;61859;49.204;8.140;2022-09-03T17:38:25;1.73;;;0.90;;
73575;SDS011;61859;49.204;8.140;2022-09-03T17:41:22;3.00;;;1.30;;
73575;SDS011;61859;49.204;8.140;2022-09-03T17:49:25;2.50;;;1.60;;
73575;SDS011;61859;49.204;8.140;2022-09-03T17:51:58;1.73;;;1.50;;
73575;SDS011;61859;49.204;8.140;2022-09-03T17:54:37;4.13;;;1.60;;
73575;SDS011;61859;49.204;8.140;2022-09-03T17:59:43;2.10;;;1.67;;
73575;SDS011;61859;49.204;8.140;2022-09-03T18:08:21;3.17;;;1.90;;
73575;SDS011;61859;49.204;8.140;2022-09-03T18:16:16;2.10;;;1.90;;
73575;SDS011;61859;49.204;8.140;2022-09-03T18:18:50;3.87;;;2.00;;
73575;SDS011;61859;49.204;8.140;2022-09-03T18:21:19;1.63;;;1.53;;
73575;SDS011;61859;49.204;8.140;2022-09-03T18:24:10;2.00;;;1.67;;
73575;SDS011;61859;49.204;8.140;2022-09-03T18:27:14;1.97;;;1.87;;
73575;SDS011;61859;49.204;8.140;2022-09-03T18:30:05;1.93;;;1.83;;
73575;SDS011;61859;49.204;8.140;2022-09-03T18:32:51;2.33;;;2.13;;
73575;SDS011;61859;49.204;8.140;2022-09-03T18:35:36;2.00;;;1.90;;
73575;SDS011;61859;49.204;8.140;2022-09-03T18:38:25;2.37;;;2.17;;
73575;SDS011;61859;49.204;8.140;2022-09-03T18:53:20;2.37;;;2.17;;
73575;SDS011;61859;49.204;8.140;2022-09-03T18:56:15;3.03;;;2.53;;
73575;SDS011;61859;49.204;8.140;2022-09-03T18:59:06;2.00;;;1.90;;
73575;SDS011;61859;49.204;8.140;2022-09-03T19:01:58;4.73;;;2.23;;
73575;SDS011;61859;49.204;8.140;2022-09-03T19:05:07;2.40;;;2.20;;
73575;SDS011;61859;49.204;8.140;2022-09-03T19:08:10;2.63;;;2.30;;
73575;SDS011;61859;49.204;8.140;2022-09-03T19:11:21;6.27;;;2.03;;
73575;SDS011;61859;49.204;8.140;2022-09-03T19:14:28;8.27;;;2.83;;
73575;SDS011;61859;49.204;8.140;2022-09-03T19:17:27;2.93;;;2.60;;
73575;SDS011;61859;49.204;8.140;2022-09-03T19:20:39;3.33;;;2.30;;
73575;SDS011;61859;49.204;8.140;2022-09-03T19:23:35;3.17;;;2.60;;
73575;SDS011;61859;49.204;8.140;2022-09-03T19:26:22;5.17;;;2.40;;
73575;SDS011;61859;49.204;8.140;2022-09-03T19:29:31;3.43;;;2.60;;
73575;SDS011;61859;49.204;8.140;2022-09-03T19:32:29;3.87;;;2.70;;
73575;SDS011;61859;49.204;8.140;2022-09-03T19:35:24;4.23;;;3.10;;
73575;SDS011;61859;49.204;8.140;2022-09-03T19:41:26;2.83;;;2.63;;
73575;SDS011;61859;49.204;8.140;2022-09-03T19:44:28;5.27;;;3.40;;
73575;SDS011;61859;49.204;8.140;2022-09-03T19:50:34;2.83;;;2.63;;
73575;SDS011;61859;49.204;8.140;2022-09-03T19:53:23;3.37;;;2.80;;
73575;SDS011;61859;49.204;8.140;2022-09-03T19:56:10;2.53;;;2.33;;
73575;SDS011;61859;49.204;8.140;2022-09-03T19:59:03;3.20;;;2.70;;
73575;SDS011;61859;49.204;8.140;2022-09-03T20:01:52;4.50;;;2.63;;
73575;SDS011;61859;49.204;8.140;2022-09-03T20:04:38;4.80;;;2.87;;
73575;SDS011;61859;49.204;8.140;2022-09-03T20:07:28;2.67;;;2.47;;
73575;SDS011;61859;49.204;8.140;2022-09-03T20:10:15;5.63;;;2.80;;
73575;SDS011;61859;49.204;8.140;2022-09-03T20:12:53;3.47;;;2.40;;
73575;SDS011;61859;49.204;8.140;2022-09-03T20:15:21;4.07;;;2.83;;
73575;SDS011;61859;49.204;8.140;2022-09-03T20:20:19;2.90;;;2.70;;
73575;SDS011;61859;49.204;8.140;2022-09-03T20:22:57;3.13;;;2.37;;
73575;SDS011;61859;49.204;8.140;2022-09-03T20:25:45;2.70;;;2.50;;